Church Rock, New Mexico
Current Conditions -  °F | °C
As of 1:53 PM on Saturday 25 Oct 2014 (Local Time) from KGUP Reporting Station
Clear Clear  
Wind Chill: 73°   Ceiling: Unl
Heat Index: 73°   Visibility: 10mi
Dew Point: 36°   Wind: 13mph
Humidity: 26%   Direction: 230°SW
Pressure: 30.32"   Gusts: 23mph
Location:  35.53°N, 108.6°W
Report Text: KGUP 251953Z AUTO 23011G20KT 10SM CLR 23/02 A3032 RMK AO2 SLP163 T02280022
Loading
Personal Weather Stations






























Interactive Weather Map
Tropical Storm Tracking
New forecast layout! Learn more

10-Day Weather Forecast

Advertisements
Track Severe Weather on mobile